sensor_id;sensor_type;location;lat;lon;timestamp;pressure;altitude;pressure_sealevel;temperature
69415;BMP280;56608;43.530;-5.652;2022-08-21T00:00:47;101822.19;;;23.93
69415;BMP280;56608;43.530;-5.652;2022-08-21T00:01:47;101824.44;;;23.94
69415;BMP280;56608;43.530;-5.652;2022-08-21T00:02:50;101823.69;;;23.94
69415;BMP280;56608;43.530;-5.652;2022-08-21T00:03:51;101827.19;;;23.94
69415;BMP280;56608;43.530;-5.652;2022-08-21T00:04:52;101827.66;;;23.93
69415;BMP280;56608;43.530;-5.652;2022-08-21T00:05:52;101824.94;;;23.93
69415;BMP280;56608;43.530;-5.652;2022-08-21T00:06:53;101822.19;;;23.93
69415;BMP280;56608;43.530;-5.652;2022-08-21T00:07:54;101821.69;;;23.94
69415;BMP280;56608;43.530;-5.652;2022-08-21T00:08:54;101831.91;;;23.94
69415;BMP280;56608;43.530;-5.652;2022-08-21T00:09:55;101827.66;;;23.93
69415;BMP280;56608;43.530;-5.652;2022-08-21T00:10:55;101827.94;;;23.95
69415;BMP280;56608;43.530;-5.652;2022-08-21T00:11:55;101830.41;;;23.93
69415;BMP280;56608;43.530;-5.652;2022-08-21T00:12:56;101830.41;;;23.93
69415;BMP280;56608;43.530;-5.652;2022-08-21T00:13:56;101830.69;;;23.95
69415;BMP280;56608;43.530;-5.652;2022-08-21T00:14:57;101834.44;;;23.92
69415;BMP280;56608;43.530;-5.652;2022-08-21T00:15:58;101827.94;;;23.84
69415;BMP280;56608;43.530;-5.652;2022-08-21T00:16:58;101830.47;;;23.76
69415;BMP280;56608;43.530;-5.652;2022-08-21T00:17:59;101837.41;;;23.83
69415;BMP280;56608;43.530;-5.652;2022-08-21T00:18:59;101838.91;;;23.84
69415;BMP280;56608;43.530;-5.652;2022-08-21T00:19:59;101839.91;;;23.86
69415;BMP280;56608;43.530;-5.652;2022-08-21T00:21:00;101838.16;;;23.83
69415;BMP280;56608;43.530;-5.652;2022-08-21T00:22:00;101834.75;;;23.66
69415;BMP280;56608;43.530;-5.652;2022-08-21T00:23:01;101836.22;;;23.61
69415;BMP280;56608;43.530;-5.652;2022-08-21T00:24:01;101829.97;;;23.61
69415;BMP280;56608;43.530;-5.652;2022-08-21T00:25:03;101825.25;;;23.61
69415;BMP280;56608;43.530;-5.652;2022-08-21T00:26:03;101830.25;;;23.63
69415;BMP280;56608;43.530;-5.652;2022-08-21T00:27:04;101829.22;;;23.60
69415;BMP280;56608;43.530;-5.652;2022-08-21T00:28:04;101827.97;;;23.61
69415;BMP280;56608;43.530;-5.652;2022-08-21T00:29:06;101832.97;;;23.57
69415;BMP280;56608;43.530;-5.652;2022-08-21T00:30:06;101829.75;;;23.59
69415;BMP280;56608;43.530;-5.652;2022-08-21T00:31:07;101823.75;;;23.60
69415;BMP280;56608;43.530;-5.652;2022-08-21T00:32:07;101823.75;;;23.60
69415;BMP280;56608;43.530;-5.652;2022-08-21T00:33:08;101825.50;;;23.58
69415;BMP280;56608;43.530;-5.652;2022-08-21T00:34:10;101829.75;;;23.53
69415;BMP280;56608;43.530;-5.652;2022-08-21T00:35:14;101827.50;;;23.57
69415;BMP280;56608;43.530;-5.652;2022-08-21T00:36:15;101833.47;;;23.61
69415;BMP280;56608;43.530;-5.652;2022-08-21T00:37:15;101827.97;;;23.61
69415;BMP280;56608;43.530;-5.652;2022-08-21T00:38:16;101826.00;;;23.56
69415;BMP280;56608;43.530;-5.652;2022-08-21T00:39:16;101827.22;;;23.61
69415;BMP280;56608;43.530;-5.652;2022-08-21T00:40:18;101820.53;;;23.62
69415;BMP280;56608;43.530;-5.652;2022-08-21T00:41:18;101821.25;;;23.57
69415;BMP280;56608;43.530;-5.652;2022-08-21T00:42:18;101814.56;;;23.52
69415;BMP280;56608;43.530;-5.652;2022-08-21T00:43:21;101817.03;;;23.50
69415;BMP280;56608;43.530;-5.652;2022-08-21T00:44:22;101817.03;;;23.50
69415;BMP280;56608;43.530;-5.652;2022-08-21T00:45:22;101814.56;;;23.52
69415;BMP280;56608;43.530;-5.652;2022-08-21T00:46:22;101813.06;;;23.51
69415;BMP280;56608;43.530;-5.652;2022-08-21T00:47:23;101812.28;;;23.56
69415;BMP280;56608;43.530;-5.652;2022-08-21T00:48:24;101812.53;;;23.58
69415;BMP280;56608;43.530;-5.652;2022-08-21T00:49:24;101808.03;;;23.61
69415;BMP280;56608;43.530;-5.652;2022-08-21T00:50:26;101804.31;;;23.64
69415;BMP280;56608;43.530;-5.652;2022-08-21T00:51:33;101805.81;;;23.65
69415;BMP280;56608;43.530;-5.652;2022-08-21T00:52:36;101807.03;;;23.69
69415;BMP280;56608;43.530;-5.652;2022-08-21T00:53:37;101807.03;;;23.69
69415;BMP280;56608;43.530;-5.652;2022-08-21T00:54:39;101804.03;;;23.73
69415;BMP280;56608;43.530;-5.652;2022-08-21T00:55:40;101801.06;;;23.65
69415;BMP280;56608;43.530;-5.652;2022-08-21T00:56:41;101798.31;;;23.54
69415;BMP280;56608;43.530;-5.652;2022-08-21T00:57:45;101800.53;;;23.61
69415;BMP280;56608;43.530;-5.652;2022-08-21T00:58:48;101802.56;;;23.66
69415;BMP280;56608;43.530;-5.652;2022-08-21T00:59:49;101799.31;;;23.68
69415;BMP280;56608;43.530;-5.652;2022-08-21T01:00:51;101794.09;;;23.53
69415;BMP280;56608;43.530;-5.652;2022-08-21T01:01:52;101793.06;;;23.56
69415;BMP280;56608;43.530;-5.652;2022-08-21T01:02:52;101785.84;;;23.59
69415;BMP280;56608;43.530;-5.652;2022-08-21T01:03:52;101797.84;;;23.56
69415;BMP280;56608;43.530;-5.652;2022-08-21T01:04:53;101788.84;;;23.50
69415;BMP280;56608;43.530;-5.652;2022-08-21T01:05:54;101785.87;;;23.42
69415;BMP280;56608;43.530;-5.652;2022-08-21T01:06:54;101791.38;;;23.37
69415;BMP280;56608;43.530;-5.652;2022-08-21T01:07:55;101789.63;;;23.28
69415;BMP280;56608;43.530;-5.652;2022-08-21T01:08:57;101787.16;;;23.19
69415;BMP280;56608;43.530;-5.652;2022-08-21T01:09:57;101791.91;;;23.18
69415;BMP280;56608;43.530;-5.652;2022-08-21T01:10:58;101783.41;;;23.16
69415;BMP280;56608;43.530;-5.652;2022-08-21T01:11:59;101793.88;;;23.23
69415;BMP280;56608;43.530;-5.652;2022-08-21T01:13:00;101786.91;;;23.17
69415;BMP280;56608;43.530;-5.652;2022-08-21T01:14:00;101783.41;;;23.22
69415;BMP280;56608;43.530;-5.652;2022-08-21T01:15:01;101786.41;;;23.29
69415;BMP280;56608;43.530;-5.652;2022-08-21T01:16:02;101784.41;;;23.36
69415;BMP280;56608;43.530;-5.652;2022-08-21T01:17:03;101784.41;;;23.41
69415;BMP280;56608;43.530;-5.652;2022-08-21T01:18:04;101781.91;;;23.43
69415;BMP280;56608;43.530;-5.652;2022-08-21T01:19:06;101781.41;;;23.39
69415;BMP280;56608;43.530;-5.652;2022-08-21T01:20:07;101786.63;;;23.32
69415;BMP280;56608;43.530;-5.652;2022-08-21T01:21:10;101773.19;;;23.28
69415;BMP280;56608;43.530;-5.652;2022-08-21T01:22:10;101773.44;;;23.24
69415;BMP280;56608;43.530;-5.652;2022-08-21T01:23:10;101772.69;;;23.24
69415;BMP280;56608;43.530;-5.652;2022-08-21T01:24:11;101771.94;;;23.23
69415;BMP280;56608;43.530;-5.652;2022-08-21T01:25:12;101771.94;;;23.23
69415;BMP280;56608;43.530;-5.652;2022-08-21T01:26:14;101773.69;;;23.21
69415;BMP280;56608;43.530;-5.652;2022-08-21T01:27:16;101771.94;;;23.23
69415;BMP280;56608;43.530;-5.652;2022-08-21T01:28:16;101769.19;;;23.29
69415;BMP280;56608;43.530;-5.652;2022-08-21T01:30:28;101773.94;;;23.28
69415;BMP280;56608;43.530;-5.652;2022-08-21T01:31:28;101771.94;;;23.29
69415;BMP280;56608;43.530;-5.652;2022-08-21T01:32:29;101764.94;;;23.34
69415;BMP280;56608;43.530;-5.652;2022-08-21T01:33:30;101769.16;;;23.35
69415;BMP280;56608;43.530;-5.652;2022-08-21T01:34:31;101767.16;;;23.35
69415;BMP280;56608;43.530;-5.652;2022-08-21T01:35:32;101767.69;;;23.34
69415;BMP280;56608;43.530;-5.652;2022-08-21T01:36:32;101771.19;;;23.34
69415;BMP280;56608;43.530;-5.652;2022-08-21T01:37:33;101773.66;;;23.32
69415;BMP280;56608;43.530;-5.652;2022-08-21T01:38:34;101773.94;;;23.40
69415;BMP280;56608;43.530;-5.652;2022-08-21T01:39:34;101763.44;;;23.33
69415;BMP280;56608;43.530;-5.652;2022-08-21T01:40:35;101770.94;;;23.32
69415;BMP280;56608;43.530;-5.652;2022-08-21T01:41:35;101775.16;;;23.39
69415;BMP280;56608;43.530;-5.652;2022-08-21T01:42:36;101771.19;;;23.45
69415;BMP280;56608;43.530;-5.652;2022-08-21T01:43:36;101767.16;;;23.46
69415;BMP280;56608;43.530;-5.652;2022-08-21T01:44:37;101771.41;;;23.42
69415;BMP280;56608;43.530;-5.652;2022-08-21T01:45:37;101769.91;;;23.46
69415;BMP280;56608;43.530;-5.652;2022-08-21T01:46:38;101758.72;;;23.44
69415;BMP280;56608;43.530;-5.652;2022-08-21T01:47:38;101767.69;;;23.45
69415;BMP280;56608;43.530;-5.652;2022-08-21T01:48:38;101766.44;;;23.40
69415;BMP280;56608;43.530;-5.652;2022-08-21T01:49:39;101763.22;;;23.36
69415;BMP280;56608;43.530;-5.652;2022-08-21T01:50:40;101766.19;;;23.33
69415;BMP280;56608;43.530;-5.652;2022-08-21T01:51:40;101762.97;;;23.40
69415;BMP280;56608;43.530;-5.652;2022-08-21T01:52:41;101760.94;;;23.46
69415;BMP280;56608;43.530;-5.652;2022-08-21T01:53:41;101757.44;;;23.51
69415;BMP280;56608;43.530;-5.652;2022-08-21T01:54:42;101755.44;;;23.51
69415;BMP280;56608;43.530;-5.652;2022-08-21T01:55:43;101754.69;;;23.51
69415;BMP280;56608;43.530;-5.652;2022-08-21T01:56:45;101747.75;;;23.39
69415;BMP280;56608;43.530;-5.652;2022-08-21T01:57:46;101746.25;;;23.32
69415;BMP280;56608;43.530;-5.652;2022-08-21T01:58:47;101753.22;;;23.39
69415;BMP280;56608;43.530;-5.652;2022-08-21T01:59:47;101748.25;;;23.37
69415;BMP280;56608;43.530;-5.652;2022-08-21T02:00:48;101742.25;;;23.33
69415;BMP280;56608;43.530;-5.652;2022-08-21T02:01:49;101752.47;;;23.27
69415;BMP280;56608;43.530;-5.652;2022-08-21T02:02:50;101745.00;;;23.27
69415;BMP280;56608;43.530;-5.652;2022-08-21T02:03:50;101740.56;;;23.19
69415;BMP280;56608;43.530;-5.652;2022-08-21T02:04:50;101747.28;;;23.18
69415;BMP280;56608;43.530;-5.652;2022-08-21T02:05:51;101745.03;;;23.16
69415;BMP280;56608;43.530;-5.652;2022-08-21T02:06:51;101742.53;;;23.13
69415;BMP280;56608;43.530;-5.652;2022-08-21T02:07:52;101743.81;;;23.12
69415;BMP280;56608;43.530;-5.652;2022-08-21T02:08:53;101750.50;;;23.16
69415;BMP280;56608;43.530;-5.652;2022-08-21T02:09:53;101744.28;;;23.16
69415;BMP280;56608;43.530;-5.652;2022-08-21T02:10:54;101739.53;;;23.16
69415;BMP280;56608;43.530;-5.652;2022-08-21T02:11:54;101741.53;;;23.16
69415;BMP280;56608;43.530;-5.652;2022-08-21T02:12:55;101737.56;;;23.17
69415;BMP280;56608;43.530;-5.652;2022-08-21T02:13:55;101734.84;;;23.11
69415;BMP280;56608;43.530;-5.652;2022-08-21T02:14:56;101736.31;;;23.12
69415;BMP280;56608;43.530;-5.652;2022-08-21T02:15:56;101735.81;;;23.14
69415;BMP280;56608;43.530;-5.652;2022-08-21T02:16:57;101734.56;;;23.20
69415;BMP280;56608;43.530;-5.652;2022-08-21T02:17:58;101736.53;;;23.20
69415;BMP280;56608;43.530;-5.652;2022-08-21T02:18:59;101734.56;;;23.20
69415;BMP280;56608;43.530;-5.652;2022-08-21T02:19:59;101735.06;;;23.19
69415;BMP280;56608;43.530;-5.652;2022-08-21T02:21:00;101737.81;;;23.19
69415;BMP280;56608;43.530;-5.652;2022-08-21T02:22:00;101733.31;;;23.16
69415;BMP280;56608;43.530;-5.652;2022-08-21T02:23:01;101736.31;;;23.18
69415;BMP280;56608;43.530;-5.652;2022-08-21T02:24:01;101736.81;;;23.11
69415;BMP280;56608;43.530;-5.652;2022-08-21T02:25:01;101739.06;;;23.12
69415;BMP280;56608;43.530;-5.652;2022-08-21T02:26:04;101733.31;;;23.05
69415;BMP280;56608;43.530;-5.652;2022-08-21T02:27:04;101731.34;;;23.00
69415;BMP280;56608;43.530;-5.652;2022-08-21T02:28:06;101734.06;;;22.94
69415;BMP280;56608;43.530;-5.652;2022-08-21T02:29:06;101736.56;;;22.98
69415;BMP280;56608;43.530;-5.652;2022-08-21T02:30:08;101737.09;;;22.85
69415;BMP280;56608;43.530;-5.652;2022-08-21T02:31:09;101735.81;;;22.80
69415;BMP280;56608;43.530;-5.652;2022-08-21T02:32:09;101727.84;;;22.71
69415;BMP280;56608;43.530;-5.652;2022-08-21T02:33:10;101731.56;;;22.79
69415;BMP280;56608;43.530;-5.652;2022-08-21T02:34:11;101724.63;;;22.84
69415;BMP280;56608;43.530;-5.652;2022-08-21T02:35:12;101723.88;;;22.89
69415;BMP280;56608;43.530;-5.652;2022-08-21T02:36:12;101728.84;;;22.91
69415;BMP280;56608;43.530;-5.652;2022-08-21T02:37:13;101727.12;;;22.93
69415;BMP280;56608;43.530;-5.652;2022-08-21T02:38:14;101734.59;;;22.93
69415;BMP280;56608;43.530;-5.652;2022-08-21T02:39:15;101722.09;;;22.97
69415;BMP280;56608;43.530;-5.652;2022-08-21T02:40:16;101726.84;;;23.02
69415;BMP280;56608;43.530;-5.652;2022-08-21T02:41:18;101725.84;;;22.94
69415;BMP280;56608;43.530;-5.652;2022-08-21T02:42:19;101724.13;;;22.91
69415;BMP280;56608;43.530;-5.652;2022-08-21T02:43:20;101731.09;;;22.92
69415;BMP280;56608;43.530;-5.652;2022-08-21T02:44:21;101725.88;;;22.89
69415;BMP280;56608;43.530;-5.652;2022-08-21T02:45:21;101727.88;;;22.88
69415;BMP280;56608;43.530;-5.652;2022-08-21T02:46:22;101731.84;;;22.93
69415;BMP280;56608;43.530;-5.652;2022-08-21T02:47:22;101732.09;;;22.95
69415;BMP280;56608;43.530;-5.652;2022-08-21T02:48:27;101725.09;;;22.94
69415;BMP280;56608;43.530;-5.652;2022-08-21T02:49:28;101725.59;;;22.87
69415;BMP280;56608;43.530;-5.652;2022-08-21T02:50:31;101725.88;;;22.89
69415;BMP280;56608;43.530;-5.652;2022-08-21T02:51:32;101721.87;;;22.90
69415;BMP280;56608;43.530;-5.652;2022-08-21T02:52:32;101718.88;;;22.88
69415;BMP280;56608;43.530;-5.652;2022-08-21T02:53:34;101720.41;;;22.89
69415;BMP280;56608;43.530;-5.652;2022-08-21T02:54:34;101717.87;;;22.91
69415;BMP280;56608;43.530;-5.652;2022-08-21T02:55:35;101720.88;;;22.93
69415;BMP280;56608;43.530;-5.652;2022-08-21T02:56:36;101714.41;;;22.96
69415;BMP280;56608;43.530;-5.652;2022-08-21T02:57:36;101712.91;;;22.95
69415;BMP280;56608;43.530;-5.652;2022-08-21T02:58:38;101710.41;;;22.97
69415;BMP280;56608;43.530;-5.652;2022-08-21T02:59:40;101714.13;;;22.99
69415;BMP280;56608;43.530;-5.652;2022-08-21T03:00:40;101712.91;;;22.95
69415;BMP280;56608;43.530;-5.652;2022-08-21T03:01:41;101711.41;;;22.94
69415;BMP280;56608;43.530;-5.652;2022-08-21T03:02:42;101708.91;;;22.90
69415;BMP280;56608;43.530;-5.652;2022-08-21T03:03:44;101704.44;;;22.87
69415;BMP280;56608;43.530;-5.652;2022-08-21T03:04:44;101699.94;;;22.90
69415;BMP280;56608;43.530;-5.652;2022-08-21T03:05:45;101700.69;;;22.90
69415;BMP280;56608;43.530;-5.652;2022-08-21T03:06:45;101700.19;;;22.97
69415;BMP280;56608;43.530;-5.652;2022-08-21T03:07:46;101697.22;;;22.95
69415;BMP280;56608;43.530;-5.652;2022-08-21T03:08:47;101705.91;;;22.94
69415;BMP280;56608;43.530;-5.652;2022-08-21T03:09:48;101708.44;;;22.92
69415;BMP280;56608;43.530;-5.652;2022-08-21T03:10:49;101701.94;;;22.95
69415;BMP280;56608;43.530;-5.652;2022-08-21T03:11:50;101701.94;;;22.95
69415;BMP280;56608;43.530;-5.652;2022-08-21T03:12:51;101699.47;;;22.97
69415;BMP280;56608;43.530;-5.652;2022-08-21T03:13:51;101706.41;;;22.98
69415;BMP280;56608;43.530;-5.652;2022-08-21T03:14:52;101702.69;;;22.95
69415;BMP280;56608;43.530;-5.652;2022-08-21T03:15:52;101696.94;;;23.04
69415;BMP280;56608;43.530;-5.652;2022-08-21T03:16:52;101694.22;;;23.10
69415;BMP280;56608;43.530;-5.652;2022-08-21T03:17:53;101703.94;;;23.11
69415;BMP280;56608;43.530;-5.652;2022-08-21T03:18:54;101700.44;;;23.10
69415;BMP280;56608;43.530;-5.652;2022-08-21T03:19:54;101702.91;;;23.08
69415;BMP280;56608;43.530;-5.652;2022-08-21T03:20:55;101690.94;;;23.06
69415;BMP280;56608;43.530;-5.652;2022-08-21T03:21:55;101699.91;;;23.06
69415;BMP280;56608;43.530;-5.652;2022-08-21T03:22:56;101694.69;;;23.03
69415;BMP280;56608;43.530;-5.652;2022-08-21T03:23:56;101701.16;;;23.05
69415;BMP280;56608;43.530;-5.652;2022-08-21T03:24:56;101698.41;;;23.05
69415;BMP280;56608;43.530;-5.652;2022-08-21T03:25:57;101700.94;;;23.03
69415;BMP280;56608;43.530;-5.652;2022-08-21T03:26:58;101700.41;;;23.05
69415;BMP280;56608;43.530;-5.652;2022-08-21T03:28:02;101702.91;;;23.03
69415;BMP280;56608;43.530;-5.652;2022-08-21T03:29:02;101698.44;;;23.00
69415;BMP280;56608;43.530;-5.652;2022-08-21T03:30:04;101705.44;;;23.01
69415;BMP280;56608;43.530;-5.652;2022-08-21T03:31:04;101702.16;;;23.02
69415;BMP280;56608;43.530;-5.652;2022-08-21T03:32:05;101711.13;;;23.08
69415;BMP280;56608;43.530;-5.652;2022-08-21T03:33:09;101709.66;;;23.07
69415;BMP280;56608;43.530;-5.652;2022-08-21T03:34:09;101702.69;;;23.12
69415;BMP280;56608;43.530;-5.652;2022-08-21T03:35:10;101700.94;;;23.14
69415;BMP280;56608;43.530;-5.652;2022-08-21T03:36:10;101700.41;;;23.16
69415;BMP280;56608;43.530;-5.652;2022-08-21T03:37:11;101699.44;;;23.13
69415;BMP280;56608;43.530;-5.652;2022-08-21T03:38:11;101696.47;;;23.11
69415;BMP280;56608;43.530;-5.652;2022-08-21T03:39:15;101704.69;;;23.11
69415;BMP280;56608;43.530;-5.652;2022-08-21T03:40:16;101701.19;;;23.11
69415;BMP280;56608;43.530;-5.652;2022-08-21T03:41:17;101697.19;;;23.06
69415;BMP280;56608;43.530;-5.652;2022-08-21T03:42:17;101693.69;;;23.06
69415;BMP280;56608;43.530;-5.652;2022-08-21T03:43:18;101692.69;;;23.09
69415;BMP280;56608;43.530;-5.652;2022-08-21T03:44:18;101698.19;;;23.14
69415;BMP280;56608;43.530;-5.652;2022-08-21T03:45:19;101687.97;;;23.15
69415;BMP280;56608;43.530;-5.652;2022-08-21T03:46:19;101701.16;;;23.16
69415;BMP280;56608;43.530;-5.652;2022-08-21T03:47:20;101694.44;;;23.17
69415;BMP280;56608;43.530;-5.652;2022-08-21T03:48:21;101694.66;;;23.19
69415;BMP280;56608;43.530;-5.652;2022-08-21T03:49:22;101697.19;;;23.17
69415;BMP280;56608;43.530;-5.652;2022-08-21T03:50:27;101699.91;;;23.17
69415;BMP280;56608;43.530;-5.652;2022-08-21T03:51:28;101691.94;;;23.19
69415;BMP280;56608;43.530;-5.652;2022-08-21T03:52:28;101686.69;;;23.21
69415;BMP280;56608;43.530;-5.652;2022-08-21T03:53:28;101688.94;;;23.23
69415;BMP280;56608;43.530;-5.652;2022-08-21T03:54:30;101684.72;;;23.16
69415;BMP280;56608;43.530;-5.652;2022-08-21T03:55:31;101685.72;;;23.19
69415;BMP280;56608;43.530;-5.652;2022-08-21T03:56:31;101680.72;;;23.17
69415;BMP280;56608;43.530;-5.652;2022-08-21T03:57:32;101684.22;;;23.18
69415;BMP280;56608;43.530;-5.652;2022-08-21T03:58:32;101680.72;;;23.17
69415;BMP280;56608;43.530;-5.652;2022-08-21T03:59:32;101686.22;;;23.17
69415;BMP280;56608;43.530;-5.652;2022-08-21T04:00:33;101680.97;;;23.19
69415;BMP280;56608;43.530;-5.652;2022-08-21T04:01:33;101687.44;;;23.22
69415;BMP280;56608;43.530;-5.652;2022-08-21T04:02:34;101679.72;;;23.20
69415;BMP280;56608;43.530;-5.652;2022-08-21T04:03:35;101682.22;;;23.13
69415;BMP280;56608;43.530;-5.652;2022-08-21T04:04:36;101679.00;;;22.98
69415;BMP280;56608;43.530;-5.652;2022-08-21T04:05:36;101684.25;;;22.96
69415;BMP280;56608;43.530;-5.652;2022-08-21T04:06:37;101682.00;;;23.00
69415;BMP280;56608;43.530;-5.652;2022-08-21T04:07:37;101688.22;;;22.95
69415;BMP280;56608;43.530;-5.652;2022-08-21T04:08:38;101681.03;;;22.92
69415;BMP280;56608;43.530;-5.652;2022-08-21T04:09:38;101690.00;;;22.92
69415;BMP280;56608;43.530;-5.652;2022-08-21T04:10:39;101697.47;;;22.92
69415;BMP280;56608;43.530;-5.652;2022-08-21T04:11:39;101694.22;;;22.88
69415;BMP280;56608;43.530;-5.652;2022-08-21T04:12:40;101701.69;;;22.81
69415;BMP280;56608;43.530;-5.652;2022-08-21T04:13:40;101693.47;;;22.81
69415;BMP280;56608;43.530;-5.652;2022-08-21T04:14:41;101698.19;;;22.81
69415;BMP280;56608;43.530;-5.652;2022-08-21T04:15:41;101698.94;;;22.81
69415;BMP280;56608;43.530;-5.652;2022-08-21T04:16:42;101691.75;;;22.84
69415;BMP280;56608;43.530;-5.652;2022-08-21T04:17:43;101697.72;;;22.77
69415;BMP280;56608;43.530;-5.652;2022-08-21T04:18:43;101693.22;;;22.74
69415;BMP280;56608;43.530;-5.652;2022-08-21T04:19:43;101688.50;;;22.74
69415;BMP280;56608;43.530;-5.652;2022-08-21T04:20:44;101694.69;;;22.75
69415;BMP280;56608;43.530;-5.652;2022-08-21T04:21:46;101692.97;;;22.66
69415;BMP280;56608;43.530;-5.652;2022-08-21T04:22:46;101698.47;;;22.66
69415;BMP280;56608;43.530;-5.652;2022-08-21T04:23:47;101694.47;;;22.67
69415;BMP280;56608;43.530;-5.652;2022-08-21T04:24:47;101702.69;;;22.73
69415;BMP280;56608;43.530;-5.652;2022-08-21T04:25:48;101698.47;;;22.77
69415;BMP280;56608;43.530;-5.652;2022-08-21T04:26:48;101692.72;;;22.75
69415;BMP280;56608;43.530;-5.652;2022-08-21T04:27:48;101701.69;;;22.76
69415;BMP280;56608;43.530;-5.652;2022-08-21T04:28:49;101695.97;;;22.74
69415;BMP280;56608;43.530;-5.652;2022-08-21T04:29:49;101699.69;;;22.71
69415;BMP280;56608;43.530;-5.652;2022-08-21T04:30:52;101704.94;;;22.74
69415;BMP280;56608;43.530;-5.652;2022-08-21T04:31:53;101702.94;;;22.80
69415;BMP280;56608;43.530;-5.652;2022-08-21T04:32:53;101703.19;;;22.77
69415;BMP280;56608;43.530;-5.652;2022-08-21T04:33:54;101702.19;;;22.80
69415;BMP280;56608;43.530;-5.652;2022-08-21T04:34:58;101702.44;;;22.76
69415;BMP280;56608;43.530;-5.652;2022-08-21T04:35:59;101709.16;;;22.70
69415;BMP280;56608;43.530;-5.652;2022-08-21T04:36:59;101710.63;;;22.71
69415;BMP280;56608;43.530;-5.652;2022-08-21T04:37:59;101715.16;;;22.74
69415;BMP280;56608;43.530;-5.652;2022-08-21T04:39:00;101707.16;;;22.76
69415;BMP280;56608;43.530;-5.652;2022-08-21T04:40:00;101707.69;;;22.74
69415;BMP280;56608;43.530;-5.652;2022-08-21T04:41:01;101707.16;;;22.76
69415;BMP280;56608;43.530;-5.652;2022-08-21T04:42:01;101715.37;;;22.81
69415;BMP280;56608;43.530;-5.652;2022-08-21T04:43:06;101713.41;;;22.88
69415;BMP280;56608;43.530;-5.652;2022-08-21T04:44:08;101708.44;;;22.92
69415;BMP280;56608;43.530;-5.652;2022-08-21T04:45:08;101714.66;;;22.92
69415;BMP280;56608;43.530;-5.652;2022-08-21T04:46:09;101705.91;;;22.94
69415;BMP280;56608;43.530;-5.652;2022-08-21T04:47:09;101704.94;;;22.97
69415;BMP280;56608;43.530;-5.652;2022-08-21T04:48:11;101708.41;;;22.97
69415;BMP280;56608;43.530;-5.652;2022-08-21T04:49:11;101705.66;;;22.97
69415;BMP280;56608;43.530;-5.652;2022-08-21T04:50:12;101705.66;;;22.97
69415;BMP280;56608;43.530;-5.652;2022-08-21T04:51:16;101708.91;;;22.96
69415;BMP280;56608;43.530;-5.652;2022-08-21T04:52:19;101714.87;;;22.94
69415;BMP280;56608;43.530;-5.652;2022-08-21T04:53:22;101716.38;;;22.90
69415;BMP280;56608;43.530;-5.652;2022-08-21T04:54:24;101712.88;;;22.83
69415;BMP280;56608;43.530;-5.652;2022-08-21T04:55:24;101715.88;;;22.80
69415;BMP280;56608;43.530;-5.652;2022-08-21T04:56:29;101718.63;;;22.80
69415;BMP280;56608;43.530;-5.652;2022-08-21T04:57:31;101722.09;;;22.80
69415;BMP280;56608;43.530;-5.652;2022-08-21T04:58:31;101721.87;;;22.84
69415;BMP280;56608;43.530;-5.652;2022-08-21T04:59:35;101721.41;;;22.86
69415;BMP280;56608;43.530;-5.652;2022-08-21T05:00:35;101725.59;;;22.87
69415;BMP280;56608;43.530;-5.652;2022-08-21T05:01:37;101726.09;;;22.91
69415;BMP280;56608;43.530;-5.652;2022-08-21T05:02:38;101724.87;;;22.92
69415;BMP280;56608;43.530;-5.652;2022-08-21T05:03:39;101733.59;;;22.96
69415;BMP280;56608;43.530;-5.652;2022-08-21T05:04:51;101726.59;;;22.95
69415;BMP280;56608;43.530;-5.652;2022-08-21T05:05:51;101736.06;;;22.94
69415;BMP280;56608;43.530;-5.652;2022-08-21T05:06:52;101733.09;;;22.92
69415;BMP280;56608;43.530;-5.652;2022-08-21T05:07:53;101738.31;;;22.90
69415;BMP280;56608;43.530;-5.652;2022-08-21T05:08:54;101736.06;;;22.94
69415;BMP280;56608;43.530;-5.652;2022-08-21T05:09:55;101739.81;;;22.96
69415;BMP280;56608;43.530;-5.652;2022-08-21T05:10:55;101736.81;;;23.00
69415;BMP280;56608;43.530;-5.652;2022-08-21T05:11:56;101738.31;;;23.01
69415;BMP280;56608;43.530;-5.652;2022-08-21T05:12:57;101739.56;;;23.00
69415;BMP280;56608;43.530;-5.652;2022-08-21T05:13:58;101742.03;;;22.98
69415;BMP280;56608;43.530;-5.652;2022-08-21T05:14:59;101742.56;;;22.96
69415;BMP280;56608;43.530;-5.652;2022-08-21T05:15:59;101749.28;;;22.84
69415;BMP280;56608;43.530;-5.652;2022-08-21T05:16:59;101744.78;;;22.87
69415;BMP280;56608;43.530;-5.652;2022-08-21T05:18:00;101749.28;;;22.90
69415;BMP280;56608;43.530;-5.652;2022-08-21T05:19:00;101748.28;;;22.93
69415;BMP280;56608;43.530;-5.652;2022-08-21T05:20:00;101748.53;;;22.89
69415;BMP280;56608;43.530;-5.652;2022-08-21T05:21:02;101750.78;;;22.91
69415;BMP280;56608;43.530;-5.652;2022-08-21T05:22:02;101758.50;;;22.87
69415;BMP280;56608;43.530;-5.652;2022-08-21T05:23:09;101758.75;;;22.89
69415;BMP280;56608;43.530;-5.652;2022-08-21T05:24:10;101767.22;;;22.91
69415;BMP280;56608;43.530;-5.652;2022-08-21T05:25:11;101753.78;;;22.93
69415;BMP280;56608;43.530;-5.652;2022-08-21T05:26:11;101750.78;;;22.91
69415;BMP280;56608;43.530;-5.652;2022-08-21T05:27:12;101758.50;;;22.87
69415;BMP280;56608;43.530;-5.652;2022-08-21T05:28:12;101760.00;;;22.88
69415;BMP280;56608;43.530;-5.652;2022-08-21T05:29:13;101756.25;;;22.91
69415;BMP280;56608;43.530;-5.652;2022-08-21T05:30:14;101747.03;;;22.88
69415;BMP280;56608;43.530;-5.652;2022-08-21T05:31:14;101750.03;;;22.90
69415;BMP280;56608;43.530;-5.652;2022-08-21T05:32:15;101740.06;;;22.93
69415;BMP280;56608;43.530;-5.652;2022-08-21T05:33:15;101754.00;;;22.95
69415;BMP280;56608;43.530;-5.652;2022-08-21T05:34:19;101747.28;;;22.90
69415;BMP280;56608;43.530;-5.652;2022-08-21T05:35:20;101752.78;;;22.85
69415;BMP280;56608;43.530;-5.652;2022-08-21T05:36:20;101747.03;;;22.88
69415;BMP280;56608;43.530;-5.652;2022-08-21T05:37:20;101758.50;;;22.87
69415;BMP280;56608;43.530;-5.652;2022-08-21T05:38:21;101755.00;;;22.86
69415;BMP280;56608;43.530;-5.652;2022-08-21T05:39:22;101759.25;;;22.87
69415;BMP280;56608;43.530;-5.652;2022-08-21T05:40:22;101755.97;;;22.83
69415;BMP280;56608;43.530;-5.652;2022-08-21T05:41:23;101756.72;;;22.83
69415;BMP280;56608;43.530;-5.652;2022-08-21T05:42:23;101755.00;;;22.86